Time;durP1;ratioP1;P1;durP2;ratioP2;P2;SDS_P1;SDS_P2;PMS_P1;PMS_P2;Temp;Humidity;BMP_temperature;BMP_pressure;BME280_temperature;BME280_humidity;BME280_pressure;Samples;Min_cycle;Max_cycle;Signal;HPM_P1;HPM_P2
2023/08/11 00:00:13;;;;;;;5.28;3.65;;;;;;;14.82;100.00;101229.66;678212;29;966;-65
2023/08/11 00:00:33;;;;;;;5.18;3.67;;;;;;;14.82;100.00;101236.69;677234;29;2241;-64
2023/08/11 00:00:54;;;;;;;4.73;3.60;;;;;;;14.81;100.00;101230.56;680091;29;799;-64
2023/08/11 00:01:14;;;;;;;5.53;3.58;;;;;;;14.81;100.00;101229.66;678703;28;4381;-64
2023/08/11 00:01:37;;;;;;;5.70;3.70;;;;;;;14.79;100.00;101229.69;677976;29;1011;-64
2023/08/11 00:01:57;;;;;;;5.43;3.63;;;;;;;14.82;100.00;101228.78;680292;29;1454;-65
2023/08/11 00:02:18;;;;;;;6.50;3.77;;;;;;;14.81;100.00;101227.94;682629;29;909;-64
2023/08/11 00:02:38;;;;;;;6.20;3.80;;;;;;;14.80;100.00;101239.34;679500;28;1761;-65
2023/08/11 00:02:59;;;;;;;5.97;3.57;;;;;;;14.80;100.00;101235.81;680723;29;989;-64
2023/08/11 00:03:19;;;;;;;6.13;3.70;;;;;;;14.79;100.00;101234.09;679829;29;794;-65
2023/08/11 00:03:39;;;;;;;6.07;3.53;;;;;;;14.78;100.00;101233.22;680374;28;1680;-64
2023/08/11 00:04:00;;;;;;;5.20;3.50;;;;;;;14.78;100.00;101227.94;679572;29;996;-64
2023/08/11 00:04:20;;;;;;;5.05;3.40;;;;;;;14.78;100.00;101233.22;679909;28;4600;-65
2023/08/11 00:04:42;;;;;;;6.53;4.10;;;;;;;14.77;100.00;101230.59;678122;29;1890;-64
2023/08/11 00:05:03;;;;;;;7.10;3.75;;;;;;;14.76;100.00;101234.13;679468;29;1422;-65
2023/08/11 00:05:24;;;;;;;7.28;4.00;;;;;;;14.76;100.00;101234.13;679637;29;902;-65
2023/08/11 00:05:44;;;;;;;5.67;3.67;;;;;;;14.73;100.00;101237.69;678300;29;2191;-64
2023/08/11 00:06:08;;;;;;;4.90;3.50;;;;;;;14.73;100.00;101235.06;680047;29;799;-64
2023/08/11 00:06:28;;;;;;;4.82;3.67;;;;;;;14.75;100.00;101235.03;676318;29;1714;-65
2023/08/11 00:06:52;;;;;;;5.78;3.50;;;;;;;14.75;100.00;101232.41;676711;29;1312;-64
2023/08/11 00:07:13;;;;;;;5.38;3.55;;;;;;;14.74;100.00;101226.25;677873;28;4367;-65
2023/08/11 00:07:34;;;;;;;5.03;3.43;;;;;;;14.75;100.00;101232.41;677793;29;2525;-64
2023/08/11 00:07:54;;;;;;;5.90;3.50;;;;;;;14.73;100.00;101228.91;681275;29;838;-64
2023/08/11 00:08:18;;;;;;;5.93;3.47;;;;;;;14.73;100.00;101232.41;679825;29;1353;-64
2023/08/11 00:08:39;;;;;;;5.00;3.40;;;;;;;14.73;100.00;101232.41;678593;29;2286;-64
2023/08/11 00:09:00;;;;;;;5.03;3.33;;;;;;;14.73;100.00;101228.91;678735;29;914;-64
2023/08/11 00:09:21;;;;;;;4.68;3.38;;;;;;;14.72;100.00;101232.44;678216;29;874;-64
2023/08/11 00:09:41;;;;;;;4.47;3.40;;;;;;;14.74;100.00;101228.00;677966;29;2358;-64
2023/08/11 00:10:02;;;;;;;4.80;3.60;;;;;;;14.74;100.00;101233.28;678055;29;1460;-65
2023/08/11 00:10:23;;;;;;;5.13;3.65;;;;;;;14.72;100.00;101232.44;678855;29;4496;-64
2023/08/11 00:10:45;;;;;;;5.22;3.60;;;;;;;14.70;100.00;101235.06;679507;29;2371;-65
2023/08/11 00:11:06;;;;;;;5.35;3.50;;;;;;;14.70;100.00;101234.22;682289;29;897;-65
2023/08/11 00:11:26;;;;;;;5.40;3.50;;;;;;;14.70;100.00;101237.69;679817;29;1316;-65
2023/08/11 00:11:46;;;;;;;6.72;3.70;;;;;;;14.70;100.00;101239.47;680179;29;1467;-65
2023/08/11 00:12:07;;;;;;;4.77;3.30;;;;;;;14.70;100.00;101228.94;679840;29;787;-65
2023/08/11 00:12:27;;;;;;;5.30;3.28;;;;;;;14.69;100.00;101232.47;680057;29;890;-64
2023/08/11 00:12:48;;;;;;;5.53;3.60;;;;;;;14.70;100.00;101237.69;678826;29;2270;-64
2023/08/11 00:13:12;;;;;;;5.53;3.60;;;;;;;14.70;100.00;101231.56;678956;29;4452;-65
2023/08/11 00:13:33;;;;;;;5.35;3.60;;;;;;;14.70;100.00;101232.44;678908;29;2406;-64
2023/08/11 00:13:53;;;;;;;8.40;3.80;;;;;;;14.69;100.00;101233.34;679250;29;932;-64
2023/08/11 00:14:13;;;;;;;6.57;3.70;;;;;;;14.68;100.00;101226.34;678350;29;945;-64
2023/08/11 00:14:34;;;;;;;5.68;3.58;;;;;;;14.68;100.00;101230.75;677408;29;2309;-64
2023/08/11 00:14:54;;;;;;;5.47;3.30;;;;;;;14.68;100.00;101230.75;679054;29;1490;-65
2023/08/11 00:15:15;;;;;;;5.90;3.50;;;;;;;14.70;100.00;101234.22;678408;29;786;-64
2023/08/11 00:15:39;;;;;;;5.28;3.65;;;;;;;14.71;100.00;101235.97;677496;29;2432;-65
2023/08/11 00:16:03;;;;;;;5.65;3.50;;;;;;;14.71;100.00;101235.97;678740;29;859;-64
2023/08/11 00:16:24;;;;;;;5.97;3.85;;;;;;;14.73;100.00;101228.91;677729;28;4438;-64
2023/08/11 00:16:44;;;;;;;5.38;3.53;;;;;;;14.75;100.00;101229.75;677583;29;1980;-64
2023/08/11 00:17:05;;;;;;;4.60;3.25;;;;;;;14.74;100.00;101235.91;678788;29;783;-64
2023/08/11 00:17:25;;;;;;;5.57;3.40;;;;;;;14.74;100.00;101241.19;678477;29;963;-65
2023/08/11 00:17:47;;;;;;;5.22;3.67;;;;;;;14.74;100.00;101230.66;678763;29;2424;-65
2023/08/11 00:18:09;;;;;;;6.00;3.80;;;;;;;14.72;100.00;101237.72;679063;29;1402;-65
2023/08/11 00:18:29;;;;;;;5.45;3.70;;;;;;;14.70;100.00;101231.56;677928;29;2426;-65
2023/08/11 00:18:50;;;;;;;5.40;3.67;;;;;;;14.68;100.00;101236.00;678572;29;957;-64
2023/08/11 00:19:11;;;;;;;6.03;3.60;;;;;;;14.68;100.00;101230.75;677986;29;5287;-64
2023/08/11 00:19:31;;;;;;;5.57;3.73;;;;;;;14.69;100.00;101229.81;677818;29;1757;-65
2023/08/11 00:19:52;;;;;;;5.82;3.80;;;;;;;14.68;100.00;101228.13;679066;29;3712;-64
2023/08/11 00:20:12;;;;;;;5.00;3.50;;;;;;;14.64;100.00;101233.38;677588;29;1248;-65
2023/08/11 00:20:32;;;;;;;5.45;3.50;;;;;;;14.62;100.00;101227.28;677528;29;1752;-65
2023/08/11 00:20:53;;;;;;;5.93;3.70;;;;;;;14.62;100.00;101229.00;678702;29;996;-65
2023/08/11 00:21:13;;;;;;;6.13;3.73;;;;;;;14.62;100.00;101227.28;679480;29;890;-65
2023/08/11 00:21:33;;;;;;;5.30;3.77;;;;;;;14.63;100.00;101229.03;677260;29;1131;-65
2023/08/11 00:21:54;;;;;;;6.00;3.70;;;;;;;14.64;100.00;101229.91;679598;29;1179;-64
2023/08/11 00:22:14;;;;;;;5.47;3.50;;;;;;;14.64;100.00;101224.63;678954;28;5253;-64
2023/08/11 00:22:37;;;;;;;5.63;3.63;;;;;;;14.64;100.00;101227.25;677401;29;1125;-64
2023/08/11 00:22:57;;;;;;;5.43;3.58;;;;;;;14.64;100.00;101230.75;678988;29;1196;-64
2023/08/11 00:23:17;;;;;;;5.77;3.47;;;;;;;14.62;100.00;101229.91;680608;29;1579;-64
2023/08/11 00:23:39;;;;;;;5.90;3.67;;;;;;;14.63;100.00;101231.66;677944;29;1880;-65
2023/08/11 00:23:59;;;;;;;5.10;3.50;;;;;;;14.62;100.00;101232.56;678750;29;953;-64
2023/08/11 00:24:20;;;;;;;5.47;3.67;;;;;;;14.61;100.00;101229.91;681122;29;972;-64
2023/08/11 00:24:40;;;;;;;6.50;3.50;;;;;;;14.61;100.00;101233.41;679095;29;2518;-64
2023/08/11 00:25:01;;;;;;;6.00;3.50;;;;;;;14.59;100.00;101231.66;680900;29;897;-65
2023/08/11 00:25:22;;;;;;;6.00;3.45;;;;;;;14.59;100.00;101231.66;680798;29;4399;-65
2023/08/11 00:25:43;;;;;;;6.07;3.55;;;;;;;14.59;100.00;101229.03;680132;29;1114;-64
2023/08/11 00:26:04;;;;;;;5.43;3.63;;;;;;;14.59;100.00;101227.31;681166;29;912;-65
2023/08/11 00:26:24;;;;;;;5.53;3.50;;;;;;;14.59;100.00;101229.03;679186;29;1443;-64
2023/08/11 00:26:45;;;;;;;5.15;3.40;;;;;;;14.59;100.00;101231.66;678065;29;2332;-64
2023/08/11 00:27:06;;;;;;;5.20;3.60;;;;;;;14.59;100.00;101229.94;673380;29;1256;-64
2023/08/11 00:27:27;;;;;;;4.88;3.53;;;;;;;14.56;100.00;101224.69;676398;29;834;-65
2023/08/11 00:27:48;;;;;;;5.18;3.50;;;;;;;14.58;100.00;101227.28;671522;29;2268;-65
2023/08/11 00:28:09;;;;;;;5.35;3.60;;;;;;;14.58;100.00;101222.03;676636;29;4474;-64
2023/08/11 00:28:29;;;;;;;6.00;3.50;;;;;;;14.59;100.00;101218.53;675418;29;2365;-65
2023/08/11 00:28:50;;;;;;;5.28;3.40;;;;;;;14.58;100.00;101220.28;674546;29;1277;-64
2023/08/11 00:29:11;;;;;;;4.72;3.38;;;;;;;14.58;100.00;101220.28;674954;29;890;-64
2023/08/11 00:29:31;;;;;;;5.07;3.43;;;;;;;14.57;100.00;101222.94;669201;29;1019;-64
2023/08/11 00:29:54;;;;;;;5.50;3.35;;;;;;;14.56;100.00;101219.41;672190;29;1383;-64
2023/08/11 00:30:15;;;;;;;5.82;3.40;;;;;;;14.57;100.00;101218.53;675922;29;1266;-64
2023/08/11 00:30:36;;;;;;;5.70;3.50;;;;;;;14.55;100.00;101222.97;675039;29;3022;-65
2023/08/11 00:30:58;;;;;;;4.95;3.20;;;;;;;14.54;100.00;101220.31;678891;29;1301;-64
2023/08/11 00:31:19;;;;;;;4.70;3.20;;;;;;;14.54;100.00;101226.47;676865;29;4410;-64
2023/08/11 00:31:39;;;;;;;6.43;3.57;;;;;;;14.54;100.00;101221.22;675203;29;1936;-64
2023/08/11 00:32:00;;;;;;;6.88;3.60;;;;;;;14.53;100.00;101227.34;674698;29;1948;-65
2023/08/11 00:32:21;;;;;;;5.00;3.58;;;;;;;14.54;100.00;101220.31;676811;29;1115;-64
2023/08/11 00:32:41;;;;;;;5.63;3.77;;;;;;;14.55;100.00;101220.34;676457;29;2495;-64
2023/08/11 00:33:02;;;;;;;6.03;3.50;;;;;;;14.58;100.00;101219.41;675153;29;839;-65
2023/08/11 00:33:22;;;;;;;5.30;3.30;;;;;;;14.55;100.00;101224.72;677752;29;1280;-64
2023/08/11 00:33:46;;;;;;;6.00;3.60;;;;;;;14.53;100.00;101219.47;675279;29;1485;-64
2023/08/11 00:34:07;;;;;;;5.63;3.35;;;;;;;14.52;100.00;101217.72;676441;29;4329;-64
2023/08/11 00:34:27;;;;;;;6.18;3.35;;;;;;;14.50;100.00;101229.19;678595;29;1272;-65
2023/08/11 00:34:47;;;;;;;5.37;3.37;;;;;;;14.52;100.00;101222.13;677371;28;1920;-64
2023/08/11 00:35:08;;;;;;;5.47;3.37;;;;;;;14.51;100.00;101223.91;678123;28;1196;-65
2023/08/11 00:35:28;;;;;;;5.70;3.60;;;;;;;14.51;100.00;101228.25;678074;29;913;-65
2023/08/11 00:35:48;;;;;;;5.30;3.40;;;;;;;14.52;100.00;101224.75;678384;29;2281;-64
2023/08/11 00:36:09;;;;;;;4.93;3.45;;;;;;;14.51;100.00;101223.91;676134;29;1270;-68
2023/08/11 00:36:30;;;;;;;4.97;3.37;;;;;;;14.51;100.00;101223.91;676309;29;1153;-64
2023/08/11 00:36:50;;;;;;;5.35;3.50;;;;;;;14.52;100.00;101228.25;676421;29;1918;-64
2023/08/11 00:37:11;;;;;;;5.68;3.45;;;;;;;14.51;100.00;101223.91;678294;29;4557;-65
2023/08/11 00:37:33;;;;;;;5.32;3.20;;;;;;;14.51;100.00;101223.91;674483;29;2508;-65
2023/08/11 00:37:54;;;;;;;5.05;3.30;;;;;;;14.51;100.00;101223.00;674704;29;1591;-64
2023/08/11 00:38:15;;;;;;;6.30;3.40;;;;;;;14.51;100.00;101217.75;677187;29;822;-64
2023/08/11 00:38:37;;;;;;;5.60;3.40;;;;;;;14.53;100.00;101215.97;676241;29;2357;-64
2023/08/11 00:39:00;;;;;;;5.50;3.67;;;;;;;14.53;100.00;101216.84;677117;29;1342;-64
2023/08/11 00:39:21;;;;;;;6.07;3.58;;;;;;;14.52;100.00;101216.88;677571;29;1369;-64
2023/08/11 00:39:41;;;;;;;5.05;3.50;;;;;;;14.53;100.00;101221.25;675595;29;2389;-64
2023/08/11 00:40:04;;;;;;;5.10;3.30;;;;;;;14.53;100.00;101219.47;679039;29;912;-64
2023/08/11 00:40:24;;;;;;;5.25;3.13;;;;;;;14.54;100.00;101220.31;679030;28;4512;-64
2023/08/11 00:40:44;;;;;;;5.15;3.38;;;;;;;14.54;100.00;101217.69;678342;29;1454;-64
2023/08/11 00:41:06;;;;;;;5.93;3.53;;;;;;;14.52;100.00;101219.50;679659;29;1154;-64
2023/08/11 00:41:27;;;;;;;4.82;3.05;;;;;;;14.52;100.00;101215.09;677518;29;2033;-64
2023/08/11 00:41:48;;;;;;;5.63;3.27;;;;;;;14.51;100.00;101216.00;677965;29;1745;-64
2023/08/11 00:42:09;;;;;;;5.27;3.40;;;;;;;14.50;100.00;101218.66;676976;29;5463;-64
2023/08/11 00:42:29;;;;;;;7.13;3.40;;;;;;;14.47;100.00;101215.16;676857;29;1370;-64
2023/08/11 00:42:50;;;;;;;5.53;3.35;;;;;;;14.47;100.00;101219.56;676148;29;1224;-64
2023/08/11 00:43:11;;;;;;;5.05;3.55;;;;;;;14.47;100.00;101212.53;674026;29;4494;-64
2023/08/11 00:43:31;;;;;;;5.28;3.58;;;;;;;14.49;100.00;101223.03;673148;29;1933;-65
2023/08/11 00:43:52;;;;;;;6.23;3.50;;;;;;;14.47;100.00;101225.69;671493;29;1188;-64
2023/08/11 00:44:13;;;;;;;5.90;3.60;;;;;;;14.48;100.00;101218.66;673540;29;1187;-64
2023/08/11 00:44:34;;;;;;;4.95;3.47;;;;;;;14.47;100.00;101222.19;672178;29;2154;-64
2023/08/11 00:44:57;;;;;;;5.35;3.35;;;;;;;14.45;100.00;101216.94;673695;29;869;-64
2023/08/11 00:45:18;;;;;;;5.80;3.50;;;;;;;14.45;100.00;101216.94;675940;29;1512;-65
2023/08/11 00:45:45;;;;;;;5.47;3.50;;;;;;;14.44;100.00;101216.94;675917;29;2555;-64
2023/08/11 00:46:10;;;;;;;5.35;3.60;;;;;;;14.43;100.00;101215.22;676723;29;886;-64
2023/08/11 00:46:31;;;;;;;5.15;3.55;;;;;;;14.41;100.00;101222.25;674872;29;4738;-65
2023/08/11 00:46:51;;;;;;;6.07;3.67;;;;;;;14.40;100.00;101215.22;676601;29;976;-64
2023/08/11 00:47:12;;;;;;;5.25;3.55;;;;;;;14.42;100.00;101213.47;676985;29;960;-64
2023/08/11 00:47:33;;;;;;;5.15;3.40;;;;;;;14.43;100.00;101212.59;675948;29;2734;-65
2023/08/11 00:47:53;;;;;;;5.07;3.40;;;;;;;14.41;100.00;101212.63;673854;29;1207;-64
2023/08/11 00:48:14;;;;;;;5.68;3.47;;;;;;;14.44;100.00;101214.31;674035;29;1292;-65
2023/08/11 00:48:35;;;;;;;5.83;3.30;;;;;;;14.45;100.00;101216.06;672170;29;2763;-64
2023/08/11 00:48:55;;;;;;;5.35;3.30;;;;;;;14.45;100.00;101208.16;674679;29;862;-64
2023/08/11 00:49:16;;;;;;;4.93;3.00;;;;;;;14.46;100.00;101209.91;676227;29;4591;-64
2023/08/11 00:49:37;;;;;;;5.40;3.10;;;;;;;14.44;100.00;101207.31;675839;29;2344;-64
2023/08/11 00:49:57;;;;;;;4.60;3.30;;;;;;;14.43;100.00;101217.84;678313;29;886;-64
2023/08/11 00:50:17;;;;;;;4.78;3.20;;;;;;;14.42;100.00;101209.06;677789;29;934;-64
2023/08/11 00:50:40;;;;;;;5.33;3.10;;;;;;;14.42;100.00;101208.22;677715;29;2824;-64
2023/08/11 00:51:01;;;;;;;5.70;3.42;;;;;;;14.42;100.00;101213.47;682054;28;1627;-64
2023/08/11 00:51:23;;;;;;;5.15;3.28;;;;;;;14.42;100.00;101218.72;682220;29;1023;-64
2023/08/11 00:51:44;;;;;;;5.20;3.58;;;;;;;14.41;100.00;101211.72;681156;28;1709;-64
2023/08/11 00:52:04;;;;;;;4.43;3.30;;;;;;;14.40;100.00;101218.75;682282;29;956;-64
2023/08/11 00:52:25;;;;;;;5.60;3.30;;;;;;;14.41;100.00;101224.88;679504;28;4316;-64
2023/08/11 00:52:46;;;;;;;4.97;3.13;;;;;;;14.40;100.00;101215.22;678590;29;1744;-65
2023/08/11 00:53:07;;;;;;;5.35;3.20;;;;;;;14.42;100.00;101218.72;679434;29;1312;-64
2023/08/11 00:53:27;;;;;;;5.70;3.20;;;;;;;14.42;100.00;101218.72;679361;29;857;-64
2023/08/11 00:53:51;;;;;;;4.30;2.97;;;;;;;14.40;100.00;101215.22;676669;29;2459;-64
2023/08/11 00:54:13;;;;;;;4.13;3.00;;;;;;;14.38;100.00;101215.25;674520;29;1262;-64
2023/08/11 00:54:34;;;;;;;5.47;3.20;;;;;;;14.37;100.00;101217.91;674063;29;1766;-64
2023/08/11 00:54:56;;;;;;;5.75;3.33;;;;;;;14.38;100.00;101217.03;674969;29;819;-64
2023/08/11 00:55:18;;;;;;;6.40;3.10;;;;;;;14.38;100.00;101215.25;673871;29;4617;-64
2023/08/11 00:55:39;;;;;;;7.40;3.88;;;;;;;14.38;100.00;101211.75;673560;29;1479;-64
2023/08/11 00:56:02;;;;;;;7.07;3.90;;;;;;;14.39;100.00;101208.25;675922;29;771;-64
2023/08/11 00:56:23;;;;;;;7.45;3.63;;;;;;;14.39;100.00;101213.50;678852;29;1024;-64
2023/08/11 00:56:45;;;;;;;5.70;3.35;;;;;;;14.39;100.00;101214.38;680776;28;2095;-64
2023/08/11 00:57:05;;;;;;;4.75;3.20;;;;;;;14.39;100.00;101214.38;681104;29;886;-64
2023/08/11 00:57:26;;;;;;;5.23;3.20;;;;;;;14.40;100.00;101210.88;681077;29;837;-66
2023/08/11 00:57:47;;;;;;;5.50;3.33;;;;;;;14.38;100.00;101211.75;677752;29;1986;-64
2023/08/11 00:58:07;;;;;;;4.80;3.30;;;;;;;14.37;100.00;101215.28;678993;28;5085;-64
2023/08/11 00:58:30;;;;;;;5.13;3.30;;;;;;;14.37;100.00;101208.28;679451;29;1336;-64
2023/08/11 00:58:52;;;;;;;5.00;3.30;;;;;;;14.37;100.00;101212.66;677116;29;2300;-65
2023/08/11 00:59:15;;;;;;;4.60;3.10;;;;;;;14.37;100.00;101208.28;678371;29;838;-64
2023/08/11 00:59:36;;;;;;;4.80;3.25;;;;;;;14.37;100.00;101215.28;677681;29;3216;-64
2023/08/11 00:59:57;;;;;;;4.60;3.20;;;;;;;14.38;100.00;101214.41;678686;29;862;-65
2023/08/11 01:00:18;;;;;;;5.60;3.20;;;;;;;14.38;100.00;101206.50;677189;29;878;-64
2023/08/11 01:00:39;;;;;;;5.07;3.40;;;;;;;14.39;100.00;101208.25;677503;29;2172;-65
2023/08/11 01:00:59;;;;;;;4.90;3.13;;;;;;;14.39;100.00;101205.63;679225;29;873;-64
2023/08/11 01:01:20;;;;;;;4.90;3.10;;;;;;;14.39;100.00;101203.00;677915;29;4431;-64
2023/08/11 01:01:40;;;;;;;4.70;3.10;;;;;;;14.40;100.00;101204.72;677701;29;1107;-64
2023/08/11 01:02:01;;;;;;;5.53;3.28;;;;;;;14.39;100.00;101203.00;679271;29;949;-64
2023/08/11 01:02:21;;;;;;;5.47;3.20;;;;;;;14.39;100.00;101203.00;678862;29;1048;-64
2023/08/11 01:02:43;;;;;;;5.03;3.20;;;;;;;14.38;100.00;101196.84;677736;29;2720;-63
2023/08/11 01:03:04;;;;;;;5.05;3.28;;;;;;;14.36;100.00;101208.25;679451;29;1260;-64
2023/08/11 01:03:25;;;;;;;5.10;3.03;;;;;;;14.35;100.00;101190.78;678294;29;1589;-64
2023/08/11 01:03:47;;;;;;;4.53;2.80;;;;;;;14.38;100.00;101204.72;675795;29;964;-64
2023/08/11 01:04:08;;;;;;;5.90;3.30;;;;;;;14.37;100.00;101199.50;673916;29;4414;-64
2023/08/11 01:04:28;;;;;;;4.97;3.20;;;;;;;14.37;100.00;101199.50;674377;29;1192;-64
2023/08/11 01:04:49;;;;;;;4.40;2.90;;;;;;;14.37;100.00;101196.88;673415;29;1734;-64
2023/08/11 01:05:16;;;;;;;6.85;3.08;;;;;;;14.38;100.00;101203.88;669511;29;898;-64
2023/08/11 01:05:46;;;;;;;5.13;3.15;;;;;;;14.39;100.00;101197.72;667699;29;1786;-65
2023/08/11 01:06:23;;;;;;;5.63;3.05;;;;;;;14.38;100.00;101202.09;670493;29;934;-65
2023/08/11 01:06:46;;;;;;;5.28;3.28;;;;;;;14.38;100.00;101198.63;672812;29;2018;-64
2023/08/11 01:07:22;;;;;;;5.13;3.28;;;;;;;14.39;100.00;101197.72;673632;29;1314;-64
2023/08/11 01:08:05;;;;;;;4.32;2.92;;;;;;;14.40;100.00;101197.72;674006;29;6441;-65
2023/08/11 01:08:56;;;;;;;4.95;3.10;;;;;;;14.42;100.00;101193.28;676622;29;1044;-64
2023/08/11 01:09:23;;;;;;;4.35;2.80;;;;;;;14.44;100.00;101191.53;678598;29;1247;-65
2023/08/11 01:10:12;;;;;;;5.03;2.92;;;;;;;14.46;100.00;101194.13;678453;29;2593;-65
2023/08/11 01:10:35;;;;;;;4.65;2.90;;;;;;;14.46;100.00;101194.13;680973;29;6239;-65
2023/08/11 01:11:10;;;;;;;4.75;2.90;;;;;;;14.47;100.00;101195.88;677555;29;1361;-64
2023/08/11 01:11:52;;;;;;;4.63;3.00;;;;;;;14.47;100.00;101194.13;676723;29;1372;-64
2023/08/11 01:12:33;;;;;;;5.10;3.40;;;;;;;14.51;100.00;101194.06;676325;29;1383;-65
2023/08/11 01:13:03;;;;;;;4.28;3.03;;;;;;;14.51;100.00;101192.31;677899;29;1405;-65
2023/08/11 01:13:28;;;;;;;4.50;2.95;;;;;;;14.52;100.00;101198.44;677126;29;4421;-64
2023/08/11 01:14:02;;;;;;;5.32;3.00;;;;;;;14.51;100.00;101192.31;673812;29;1741;-65
2023/08/11 01:14:33;;;;;;;4.20;2.83;;;;;;;14.52;100.00;101204.56;675647;29;933;-65
2023/08/11 01:15:03;;;;;;;5.13;2.88;;;;;;;14.54;100.00;101201.91;675972;29;1331;-64
2023/08/11 01:15:36;;;;;;;4.70;3.00;;;;;;;14.55;100.00;101204.56;678565;29;1582;-64
2023/08/11 01:15:59;;;;;;;5.40;2.97;;;;;;;14.55;100.00;101199.28;679302;29;3624;-64
2023/08/11 01:16:21;;;;;;;5.60;2.90;;;;;;;14.57;100.00;101196.63;675956;29;4464;-65
2023/08/11 01:16:48;;;;;;;5.00;3.00;;;;;;;14.56;100.00;101201.00;676897;29;2571;-64
2023/08/11 01:17:10;;;;;;;4.82;3.00;;;;;;;14.56;100.00;101198.38;677944;29;989;-65
2023/08/11 01:17:32;;;;;;;5.40;2.88;;;;;;;14.57;100.00;101196.63;677673;29;1012;-65
2023/08/11 01:17:53;;;;;;;5.28;3.00;;;;;;;14.57;100.00;101202.75;679504;29;894;-64
2023/08/11 01:18:14;;;;;;;4.85;2.90;;;;;;;14.57;100.00;101197.50;680068;28;1359;-66
2023/08/11 01:18:35;;;;;;;4.85;2.95;;;;;;;14.57;100.00;101197.50;678469;28;2305;-65
2023/08/11 01:18:57;;;;;;;5.05;3.05;;;;;;;14.58;100.00;101201.88;680011;29;1599;-64
2023/08/11 01:19:26;;;;;;;4.65;2.90;;;;;;;14.59;100.00;101202.72;678808;29;4428;-65
2023/08/11 01:19:47;;;;;;;4.55;2.90;;;;;;;14.59;100.00;101201.00;676041;29;1021;-64
2023/08/11 01:20:10;;;;;;;5.57;2.88;;;;;;;14.59;100.00;101205.38;677907;29;1440;-65
2023/08/11 01:20:33;;;;;;;5.75;2.80;;;;;;;14.58;100.00;101204.50;679585;29;854;-64
2023/08/11 01:21:09;;;;;;;5.65;2.88;;;;;;;14.58;100.00;101204.50;680019;29;964;-65
2023/08/11 01:21:34;;;;;;;5.38;3.00;;;;;;;14.57;100.00;101197.50;677878;29;1279;-65
2023/08/11 01:21:58;;;;;;;5.03;2.88;;;;;;;14.58;100.00;101196.59;675812;29;1156;-64
2023/08/11 01:22:23;;;;;;;4.85;2.90;;;;;;;14.58;100.00;101201.88;676154;29;4267;-64
2023/08/11 01:22:46;;;;;;;5.32;2.90;;;;;;;14.61;100.00;101203.59;674634;29;2240;-65
2023/08/11 01:23:07;;;;;;;5.90;2.90;;;;;;;14.59;100.00;101197.47;675995;29;794;-64
2023/08/11 01:23:28;;;;;;;4.68;2.88;;;;;;;14.59;100.00;101197.47;678603;29;1007;-64
2023/08/11 01:23:48;;;;;;;3.80;2.50;;;;;;;14.56;100.00;101201.00;679793;29;2584;-64
2023/08/11 01:24:10;;;;;;;5.30;2.75;;;;;;;14.53;100.00;101201.06;681015;29;901;-65
2023/08/11 01:24:31;;;;;;;5.20;2.92;;;;;;;14.53;100.00;101201.06;674639;29;1938;-64
2023/08/11 01:24:51;;;;;;;5.65;3.00;;;;;;;14.53;100.00;101201.06;674940;29;1778;-65
2023/08/11 01:25:12;;;;;;;4.53;3.00;;;;;;;14.52;100.00;101201.94;675473;29;4577;-64
2023/08/11 01:25:33;;;;;;;4.40;2.88;;;;;;;14.52;100.00;101199.31;674626;29;2476;-64
2023/08/11 01:25:54;;;;;;;4.60;2.80;;;;;;;14.50;100.00;101201.09;675495;29;946;-65
2023/08/11 01:26:15;;;;;;;4.93;3.10;;;;;;;14.47;100.00;101201.16;677401;29;968;-65
2023/08/11 01:26:36;;;;;;;4.78;2.92;;;;;;;14.46;100.00;101204.66;677375;29;2337;-65
2023/08/11 01:26:57;;;;;;;5.30;3.15;;;;;;;14.45;100.00;101203.81;678841;29;1012;-65
2023/08/11 01:27:18;;;;;;;4.60;3.05;;;;;;;14.46;100.00;101204.66;677972;29;1901;-65
2023/08/11 01:27:55;;;;;;;4.32;2.90;;;;;;;14.43;100.00;101205.56;677945;29;1296;-65
2023/08/11 01:28:15;;;;;;;5.38;2.95;;;;;;;14.43;100.00;101200.31;677981;29;4578;-64
2023/08/11 01:28:36;;;;;;;5.40;3.00;;;;;;;14.43;100.00;101202.06;677971;29;2241;-64
2023/08/11 01:28:59;;;;;;;5.60;3.03;;;;;;;14.41;100.00;101196.84;676246;29;1304;-64
2023/08/11 01:29:20;;;;;;;6.85;3.20;;;;;;;14.42;100.00;101200.31;677840;29;867;-64
2023/08/11 01:29:42;;;;;;;5.35;3.20;;;;;;;14.41;100.00;101194.19;677157;29;1736;-65
2023/08/11 01:30:05;;;;;;;5.23;3.00;;;;;;;14.41;100.00;101207.34;679414;29;914;-65
2023/08/11 01:30:27;;;;;;;5.30;3.00;;;;;;;14.41;100.00;101203.84;679440;29;1396;-65
2023/08/11 01:30:48;;;;;;;5.05;3.00;;;;;;;14.42;100.00;101200.31;678218;29;1809;-64
2023/08/11 01:31:08;;;;;;;4.90;3.03;;;;;;;14.40;100.00;101202.97;679384;28;4385;-64
2023/08/11 01:31:29;;;;;;;5.10;3.15;;;;;;;14.38;100.00;101204.72;677809;28;928;-65
2023/08/11 01:31:50;;;;;;;5.68;3.20;;;;;;;14.39;100.00;101200.38;676909;29;1730;-65
2023/08/11 01:32:10;;;;;;;5.15;3.00;;;;;;;14.38;100.00;101201.25;678631;29;885;-65
2023/08/11 01:32:31;;;;;;;5.33;3.00;;;;;;;14.37;100.00;101205.66;677288;29;1268;-64
2023/08/11 01:32:52;;;;;;;5.65;3.00;;;;;;;14.35;100.00;101198.66;673996;29;2200;-65
2023/08/11 01:33:12;;;;;;;5.38;2.88;;;;;;;14.33;100.00;101200.41;675056;29;822;-66
2023/08/11 01:33:33;;;;;;;5.23;3.00;;;;;;;14.31;100.00;101196.03;675538;29;2331;-65
2023/08/11 01:33:53;;;;;;;5.50;3.17;;;;;;;14.31;100.00;101206.56;677520;29;925;-65
2023/08/11 01:34:13;;;;;;;4.37;2.80;;;;;;;14.30;100.00;101201.31;671852;29;4629;-65
2023/08/11 01:34:35;;;;;;;5.10;3.03;;;;;;;14.29;100.00;101203.09;673394;29;2462;-65
2023/08/11 01:34:56;;;;;;;5.40;3.15;;;;;;;14.29;100.00;101202.22;674315;29;862;-65
2023/08/11 01:35:20;;;;;;;5.53;3.00;;;;;;;14.28;100.00;101205.75;673731;29;1367;-65
2023/08/11 01:35:41;;;;;;;6.13;3.20;;;;;;;14.27;100.00;101207.50;676788;29;1808;-64
2023/08/11 01:36:01;;;;;;;4.70;2.90;;;;;;;14.26;100.00;101200.50;678527;29;1492;-65
2023/08/11 01:36:22;;;;;;;5.47;3.03;;;;;;;14.25;100.00;101198.75;682342;29;925;-64
2023/08/11 01:36:42;;;;;;;5.40;3.20;;;;;;;14.25;100.00;101196.13;681331;28;2256;-64
2023/08/11 01:37:03;;;;;;;4.67;2.87;;;;;;;14.27;100.00;101199.63;682317;28;1567;-66
2023/08/11 01:37:24;;;;;;;4.82;2.80;;;;;;;14.25;100.00;101201.38;681449;28;4353;-64
2023/08/11 01:37:45;;;;;;;4.55;2.92;;;;;;;14.24;100.00;101201.41;678282;29;1491;-64
2023/08/11 01:38:06;;;;;;;4.95;3.00;;;;;;;14.23;100.00;101197.91;679471;29;961;-65
2023/08/11 01:38:26;;;;;;;5.07;2.90;;;;;;;14.24;100.00;101198.78;679334;29;886;-64
2023/08/11 01:38:47;;;;;;;4.60;2.90;;;;;;;14.22;100.00;101204.06;675580;29;1272;-64
2023/08/11 01:39:09;;;;;;;4.27;2.93;;;;;;;14.21;100.00;101198.81;675611;29;1362;-65
2023/08/11 01:39:30;;;;;;;4.90;2.90;;;;;;;14.19;100.00;101200.59;675041;29;894;-65
2023/08/11 01:39:53;;;;;;;4.10;2.70;;;;;;;14.19;100.00;101203.22;676408;29;2720;-65
2023/08/11 01:40:14;;;;;;;4.03;2.70;;;;;;;14.18;100.00;101204.97;676298;29;4421;-65
2023/08/11 01:40:35;;;;;;;4.90;2.80;;;;;;;14.18;100.00;101202.34;675271;29;2275;-65
2023/08/11 01:40:57;;;;;;;4.47;2.93;;;;;;;14.17;100.00;101203.22;677827;29;2309;-64
2023/08/11 01:41:17;;;;;;;5.85;3.10;;;;;;;14.16;100.00;101201.47;674054;29;1249;-65
2023/08/11 01:41:38;;;;;;;4.53;3.00;;;;;;;14.15;100.00;101199.75;675213;29;957;-64
2023/08/11 01:41:59;;;;;;;4.10;2.75;;;;;;;14.14;100.00;101198.00;675829;29;866;-69
2023/08/11 01:42:20;;;;;;;4.60;2.83;;;;;;;14.13;100.00;101196.25;676403;29;5403;-64
2023/08/11 01:42:42;;;;;;;4.53;2.90;;;;;;;14.13;100.00;101198.91;677084;29;1823;-65
2023/08/11 01:43:07;;;;;;;4.38;3.00;;;;;;;14.12;100.00;101200.66;677793;29;893;-64
2023/08/11 01:43:29;;;;;;;4.20;3.03;;;;;;;14.09;100.00;101200.66;678437;29;4879;-65
2023/08/11 01:43:51;;;;;;;5.00;3.10;;;;;;;14.09;100.00;101198.03;677992;29;2378;-64
2023/08/11 01:44:13;;;;;;;4.70;3.00;;;;;;;14.09;100.00;101197.19;679200;29;1563;-64
2023/08/11 01:44:33;;;;;;;4.75;3.10;;;;;;;14.08;100.00;101198.06;677112;29;866;-65
2023/08/11 01:44:54;;;;;;;4.33;2.93;;;;;;;14.09;100.00;101191.94;678256;29;952;-65